createdAt,value
2023-03-11T00:03:01.361Z,17.59
2023-03-11T00:06:04.088Z,17.56
2023-03-11T00:09:06.370Z,17.55
2023-03-11T00:12:08.612Z,17.53
2023-03-11T00:15:11.380Z,17.53
2023-03-11T00:18:13.535Z,17.52
2023-03-11T00:21:17.665Z,17.51
2023-03-11T00:24:19.767Z,17.51
2023-03-11T00:27:21.845Z,17.49
2023-03-11T00:30:25.516Z,17.49
2023-03-11T00:33:27.630Z,17.49
2023-03-11T00:36:32.089Z,17.47
2023-03-11T00:39:34.643Z,17.47
2023-03-11T00:42:36.752Z,17.46
2023-03-11T00:45:39.061Z,17.45
2023-03-11T00:48:41.352Z,17.43
2023-03-11T00:51:44.809Z,17.41
2023-03-11T00:54:46.897Z,17.41
2023-03-11T00:57:53.270Z,17.40
2023-03-11T01:00:55.332Z,17.39
2023-03-11T01:03:57.411Z,17.36
2023-03-11T01:06:59.492Z,17.36
2023-03-11T01:10:02.115Z,17.35
2023-03-11T01:13:04.943Z,17.34
2023-03-11T01:16:09.250Z,17.35
2023-03-11T01:19:11.464Z,17.33
2023-03-11T01:22:13.662Z,17.31
2023-03-11T01:25:17.496Z,17.31
2023-03-11T01:28:19.621Z,17.29
2023-03-11T01:31:21.779Z,17.26
2023-03-11T01:34:23.897Z,17.26
2023-03-11T01:37:26.096Z,17.25
2023-03-11T01:40:30.916Z,17.24
2023-03-11T01:43:44.906Z,17.23
2023-03-11T01:46:52.997Z,17.21
2023-03-11T01:49:55.249Z,17.20
2023-03-11T01:52:57.345Z,17.19
2023-03-11T01:56:01.348Z,17.18
2023-03-11T01:59:03.753Z,17.10
2023-03-11T02:02:18.383Z,17.10
2023-03-11T02:05:22.484Z,17.09
2023-03-11T02:08:24.620Z,17.07
2023-03-11T02:11:29.747Z,17.05
2023-03-11T02:14:32.381Z,17.05
2023-03-11T02:17:36.497Z,17.04
2023-03-11T02:20:42.466Z,17.04
2023-03-11T02:24:08.959Z,17.03
2023-03-11T02:27:14.399Z,17.00
2023-03-11T02:30:17.878Z,16.99
2023-03-11T02:33:20.770Z,17.01
2023-03-11T02:36:37.627Z,16.98
2023-03-11T02:39:42.590Z,16.98
2023-03-11T02:42:44.725Z,16.95
2023-03-11T02:45:48.062Z,16.95
2023-03-11T02:48:50.832Z,16.94
2023-03-11T02:51:52.980Z,16.92
2023-03-11T02:54:55.072Z,16.91
2023-03-11T02:57:57.265Z,16.91
2023-03-11T03:00:59.504Z,16.90
2023-03-11T03:04:01.681Z,16.88
2023-03-11T03:07:03.917Z,16.89
2023-03-11T03:10:07.572Z,16.88
2023-03-11T03:13:09.717Z,16.85
2023-03-11T03:16:12.081Z,16.84
2023-03-11T03:19:14.155Z,16.84
2023-03-11T03:22:16.266Z,16.82
2023-03-11T03:25:18.621Z,16.81
2023-03-11T03:28:20.695Z,16.80
2023-03-11T03:31:22.967Z,16.79
2023-03-11T03:34:25.200Z,16.78
2023-03-11T03:37:32.652Z,16.76
2023-03-11T03:40:35.032Z,16.76
2023-03-11T03:43:37.056Z,16.75
2023-03-11T03:46:39.508Z,16.73
2023-03-11T03:49:41.556Z,16.72
2023-03-11T03:52:43.559Z,16.71
2023-03-11T03:55:45.730Z,16.71
2023-03-11T03:58:47.750Z,16.71
2023-03-11T04:01:49.874Z,16.69
2023-03-11T04:04:52.024Z,16.67
2023-03-11T04:07:54.743Z,16.66
2023-03-11T04:10:57.472Z,16.65
2023-03-11T04:13:59.554Z,16.62
2023-03-11T04:17:01.635Z,16.64
2023-03-11T04:20:07.134Z,16.62
2023-03-11T04:23:09.250Z,16.61
2023-03-11T04:26:11.323Z,16.61
2023-03-11T04:29:13.476Z,16.60
2023-03-11T04:32:15.559Z,16.60
2023-03-11T04:35:17.760Z,16.59
2023-03-11T04:38:19.909Z,16.58
2023-03-11T04:41:21.993Z,16.56
2023-03-11T04:44:24.042Z,16.57
2023-03-11T04:47:26.064Z,16.55
2023-03-11T04:50:28.108Z,16.54
2023-03-11T04:53:30.174Z,16.52
2023-03-11T04:56:32.227Z,16.50
2023-03-11T04:59:34.273Z,16.49
2023-03-11T05:02:36.522Z,16.48
2023-03-11T05:05:38.594Z,16.47
2023-03-11T05:08:41.994Z,16.46
2023-03-11T05:11:44.073Z,16.43
2023-03-11T05:14:46.122Z,16.43
2023-03-11T05:17:48.227Z,16.43
2023-03-11T05:20:50.252Z,16.42
2023-03-11T05:23:52.304Z,16.41
2023-03-11T05:26:54.405Z,16.39
2023-03-11T05:29:56.455Z,16.39
2023-03-11T05:32:58.549Z,16.36
2023-03-11T05:36:05.714Z,16.36
2023-03-11T05:39:08.160Z,16.35
2023-03-11T05:42:10.271Z,16.34
2023-03-11T05:45:12.432Z,16.33
2023-03-11T05:48:14.422Z,16.32
2023-03-11T05:51:16.492Z,16.30
2023-03-11T05:54:18.617Z,16.31
2023-03-11T05:57:20.773Z,16.41
2023-03-11T06:00:23.470Z,16.49
2023-03-11T06:03:25.571Z,16.55
2023-03-11T06:06:28.110Z,16.61
2023-03-11T06:09:30.368Z,16.65
2023-03-11T06:12:35.216Z,16.73
2023-03-11T06:15:37.946Z,16.85
2023-03-11T06:18:40.062Z,16.94
2023-03-11T06:21:42.145Z,17.08
2023-03-11T06:24:44.205Z,17.17
2023-03-11T06:27:53.416Z,17.19
2023-03-11T06:30:59.333Z,17.22
2023-03-11T06:34:01.467Z,17.34
2023-03-11T06:37:03.704Z,17.43
2023-03-11T06:40:09.833Z,17.40
2023-03-11T06:43:11.846Z,17.45
2023-03-11T06:46:20.371Z,17.56
2023-03-11T06:49:22.461Z,17.60
2023-03-11T06:52:24.490Z,17.63
2023-03-11T06:55:26.598Z,17.64
2023-03-11T06:58:29.445Z,17.66
2023-03-11T07:01:31.609Z,17.76
2023-03-11T07:04:34.340Z,17.83
2023-03-11T07:07:36.418Z,17.84
2023-03-11T07:10:38.557Z,17.82
2023-03-11T07:13:40.714Z,17.83
2023-03-11T07:16:42.919Z,17.84
2023-03-11T07:19:44.984Z,17.81
2023-03-11T07:22:47.040Z,17.83
2023-03-11T07:25:49.485Z,17.79
2023-03-11T07:28:53.356Z,17.84
2023-03-11T07:31:55.421Z,17.94
2023-03-11T07:34:57.474Z,17.95
2023-03-11T07:37:59.508Z,17.98
2023-03-11T07:41:01.873Z,17.91
2023-03-11T07:44:04.831Z,17.92
2023-03-11T07:47:07.220Z,17.97
2023-03-11T07:50:09.852Z,18.07
2023-03-11T07:53:11.887Z,18.13
2023-03-11T07:56:15.748Z,18.13
2023-03-11T07:59:17.835Z,18.11
2023-03-11T08:02:20.022Z,18.15
2023-03-11T08:05:22.117Z,18.29
2023-03-11T08:08:24.203Z,18.46
2023-03-11T08:11:26.406Z,18.57
2023-03-11T08:14:28.687Z,18.68
2023-03-11T08:17:30.836Z,18.74
2023-03-11T08:20:32.927Z,18.80
2023-03-11T08:23:35.301Z,18.94
2023-03-11T08:26:37.314Z,19.07
2023-03-11T08:29:39.333Z,19.11
2023-03-11T08:32:41.403Z,19.12
2023-03-11T08:35:43.524Z,19.12
2023-03-11T08:38:46.307Z,19.21
2023-03-11T08:41:48.364Z,19.15
2023-03-11T08:44:50.518Z,19.07
2023-03-11T08:47:52.534Z,19.08
2023-03-11T08:50:54.910Z,19.30
2023-03-11T08:53:57.049Z,19.30
2023-03-11T08:57:02.873Z,19.26
2023-03-11T09:00:07.327Z,19.36
2023-03-11T09:03:10.034Z,19.47
2023-03-11T09:06:15.286Z,19.56
2023-03-11T09:09:20.327Z,19.36
2023-03-11T09:12:22.454Z,19.32
2023-03-11T09:15:24.724Z,19.30
2023-03-11T09:18:27.326Z,19.45
2023-03-11T09:21:29.532Z,19.52
2023-03-11T09:24:35.789Z,19.57
2023-03-11T09:27:37.966Z,19.56
2023-03-11T09:30:40.111Z,19.58
2023-03-11T09:33:43.086Z,19.52
2023-03-11T09:36:45.929Z,19.47
2023-03-11T09:39:48.930Z,19.45
2023-03-11T09:42:53.734Z,19.40
2023-03-11T09:46:24.296Z,19.33
2023-03-11T09:49:45.100Z,19.30
2023-03-11T09:52:57.619Z,19.28
2023-03-11T09:56:03.101Z,19.27
2023-03-11T09:59:31.496Z,19.37
2023-03-11T10:02:37.535Z,19.44
2023-03-11T10:05:41.062Z,19.55
2023-03-11T10:09:17.360Z,19.57
2023-03-11T10:12:57.103Z,19.56
2023-03-11T10:16:21.871Z,19.55
2023-03-11T10:19:30.183Z,19.57
2023-03-11T10:22:54.518Z,19.63
2023-03-11T10:26:13.611Z,19.63
2023-03-11T10:29:30.934Z,19.65
2023-03-11T10:32:46.332Z,19.66
2023-03-11T10:35:54.112Z,19.65
2023-03-11T10:38:56.819Z,19.59
2023-03-11T10:42:09.945Z,19.16
2023-03-11T10:45:14.171Z,18.81
2023-03-11T10:48:18.612Z,19.15
2023-03-11T10:51:23.121Z,19.41
2023-03-11T10:54:33.438Z,19.54
2023-03-11T10:57:38.748Z,19.63
2023-03-11T11:00:41.063Z,19.63
2023-03-11T11:03:45.878Z,19.66
2023-03-11T11:06:47.901Z,19.69
2023-03-11T11:10:20.928Z,19.75
2023-03-11T11:13:25.655Z,19.76
2023-03-11T11:16:29.112Z,19.69
2023-03-11T11:19:32.032Z,19.63
2023-03-11T11:22:34.083Z,19.67
2023-03-11T11:25:38.590Z,19.70
2023-03-11T11:28:40.654Z,19.83
2023-03-11T11:31:45.388Z,19.94
2023-03-11T11:34:55.047Z,20.00
2023-03-11T11:38:02.204Z,20.07
2023-03-11T11:41:05.521Z,20.04
2023-03-11T11:44:12.143Z,20.12
2023-03-11T11:47:18.860Z,20.25
2023-03-11T11:50:26.698Z,20.32
2023-03-11T11:53:43.165Z,20.34
2023-03-11T11:56:46.544Z,20.30
2023-03-11T11:59:49.128Z,20.32
2023-03-11T12:03:10.421Z,20.33
2023-03-11T12:06:25.498Z,20.47
2023-03-11T12:09:38.639Z,20.85
2023-03-11T12:13:21.437Z,20.76
2023-03-11T12:16:57.261Z,20.69
2023-03-11T12:20:30.869Z,20.88
2023-03-11T12:24:09.796Z,21.13
2023-03-11T12:27:34.233Z,20.78
2023-03-11T12:30:41.650Z,20.56
2023-03-11T12:33:51.330Z,20.37
2023-03-11T12:36:55.602Z,20.27
2023-03-11T12:39:57.851Z,20.12
2023-03-11T12:43:00.235Z,20.11
2023-03-11T12:46:04.955Z,20.22
2023-03-11T12:49:12.158Z,20.24
2023-03-11T12:52:14.356Z,20.27
2023-03-11T12:55:19.697Z,20.30
2023-03-11T12:58:53.238Z,20.30
2023-03-11T13:02:22.830Z,20.35
2023-03-11T13:05:36.985Z,20.36
2023-03-11T13:08:52.088Z,20.42
2023-03-11T13:11:54.500Z,20.42
2023-03-11T13:15:18.521Z,20.43
2023-03-11T13:18:30.494Z,20.53
2023-03-11T13:21:41.887Z,20.55
2023-03-11T13:24:50.792Z,20.57
2023-03-11T13:28:01.277Z,20.62
2023-03-11T13:31:29.494Z,20.68
2023-03-11T13:34:49.698Z,20.71
2023-03-11T13:38:10.674Z,20.74
2023-03-11T13:41:22.319Z,20.76
2023-03-11T13:44:24.456Z,20.80
2023-03-11T13:47:28.917Z,20.77
2023-03-11T13:50:40.415Z,20.79
2023-03-11T13:53:53.436Z,20.84
2023-03-11T13:56:59.823Z,20.87
2023-03-11T14:00:18.193Z,20.87
2023-03-11T14:03:23.848Z,20.87
2023-03-11T14:06:31.227Z,20.86
2023-03-11T14:09:33.815Z,20.90
2023-03-11T14:12:36.030Z,20.91
2023-03-11T14:15:45.420Z,20.76
2023-03-11T14:19:00.825Z,20.64
2023-03-11T14:22:07.511Z,20.62
2023-03-11T14:25:14.900Z,20.59
2023-03-11T14:28:21.520Z,20.62
2023-03-11T14:31:38.417Z,20.72
2023-03-11T14:34:41.042Z,20.60
2023-03-11T14:37:43.883Z,20.55
2023-03-11T14:40:51.335Z,20.55
2023-03-11T14:43:54.734Z,20.50
2023-03-11T14:47:09.925Z,20.55
2023-03-11T14:50:21.156Z,20.46
2023-03-11T14:53:35.764Z,20.33
2023-03-11T14:56:41.443Z,20.21
2023-03-11T14:59:44.944Z,20.15
2023-03-11T15:03:14.099Z,20.09
2023-03-11T15:06:23.194Z,19.98
2023-03-11T15:09:26.734Z,19.94
2023-03-11T15:12:39.771Z,19.90
2023-03-11T15:15:42.425Z,19.89
2023-03-11T15:18:44.484Z,19.84
2023-03-11T15:21:48.105Z,19.79
2023-03-11T15:24:58.428Z,19.74
2023-03-11T15:28:29.961Z,19.70
2023-03-11T15:31:37.470Z,19.68
2023-03-11T15:34:39.718Z,19.63
2023-03-11T15:37:43.073Z,19.60
2023-03-11T15:41:11.581Z,19.56
2023-03-11T15:44:40.931Z,19.54
2023-03-11T15:47:44.053Z,19.51
2023-03-11T15:50:53.501Z,19.48
2023-03-11T15:53:56.369Z,19.45
2023-03-11T15:57:02.274Z,19.43
2023-03-11T16:00:05.492Z,19.41
2023-03-11T16:03:07.715Z,19.38
2023-03-11T16:06:09.874Z,19.37
2023-03-11T16:09:12.858Z,19.32
2023-03-11T16:12:20.339Z,19.31
2023-03-11T16:15:28.495Z,19.29
2023-03-11T16:18:30.842Z,19.27
2023-03-11T16:21:41.351Z,19.26
2023-03-11T16:24:44.195Z,19.23
2023-03-11T16:27:46.409Z,19.21
2023-03-11T16:30:51.007Z,19.20
2023-03-11T16:33:53.186Z,19.18
2023-03-11T16:36:55.244Z,19.14
2023-03-11T16:39:58.371Z,19.14
2023-03-11T16:43:03.495Z,19.13
2023-03-11T16:46:05.927Z,19.10
2023-03-11T16:49:08.014Z,19.08
2023-03-11T16:52:10.281Z,19.09
2023-03-11T16:55:12.443Z,19.05
2023-03-11T16:58:15.470Z,19.02
2023-03-11T17:01:19.208Z,19.01
2023-03-11T17:04:21.418Z,18.99
2023-03-11T17:07:24.681Z,18.98
2023-03-11T17:10:35.569Z,18.96
2023-03-11T17:13:37.611Z,18.94
2023-03-11T17:16:39.647Z,18.92
2023-03-11T17:19:41.723Z,18.89
2023-03-11T17:22:43.731Z,18.89
2023-03-11T17:25:45.906Z,18.87
2023-03-11T17:28:48.181Z,18.86
2023-03-11T17:31:50.282Z,18.85
2023-03-11T17:34:52.557Z,18.84
2023-03-11T17:37:54.592Z,18.81
2023-03-11T17:40:57.087Z,18.80
2023-03-11T17:43:59.255Z,18.79
2023-03-11T17:47:01.367Z,18.77
2023-03-11T17:50:05.148Z,18.74
2023-03-11T17:53:07.464Z,18.72
2023-03-11T17:56:12.095Z,18.73
2023-03-11T17:59:15.308Z,18.71
2023-03-11T18:02:18.790Z,18.69
2023-03-11T18:05:21.702Z,18.67
2023-03-11T18:08:23.772Z,18.67
2023-03-11T18:11:27.862Z,18.67
2023-03-11T18:14:30.061Z,18.65
2023-03-11T18:17:34.342Z,18.64
2023-03-11T18:20:39.701Z,18.62
2023-03-11T18:23:42.785Z,18.63
2023-03-11T18:26:44.787Z,18.59
2023-03-11T18:29:46.811Z,18.57
2023-03-11T18:32:49.442Z,18.57
2023-03-11T18:35:51.653Z,18.56
2023-03-11T18:38:55.343Z,18.55
2023-03-11T18:41:57.361Z,18.52
2023-03-11T18:45:06.751Z,18.53
2023-03-11T18:48:08.774Z,18.51
2023-03-11T18:51:12.590Z,18.49
2023-03-11T18:54:14.605Z,18.48
2023-03-11T18:57:16.624Z,18.46
2023-03-11T19:00:22.404Z,18.43
2023-03-11T19:03:24.494Z,18.42
2023-03-11T19:06:27.791Z,18.40
2023-03-11T19:09:30.225Z,18.39
2023-03-11T19:12:34.261Z,18.37
2023-03-11T19:15:40.485Z,18.37
2023-03-11T19:18:42.653Z,18.34
2023-03-11T19:21:47.559Z,18.32
2023-03-11T19:24:49.607Z,18.30
2023-03-11T19:27:52.725Z,18.30
2023-03-11T19:30:57.381Z,18.28
2023-03-11T19:33:59.636Z,18.27
2023-03-11T19:37:01.663Z,18.26
2023-03-11T19:40:03.957Z,18.25
2023-03-11T19:43:06.399Z,18.24
2023-03-11T19:46:10.777Z,18.23
2023-03-11T19:49:12.913Z,18.24
2023-03-11T19:52:15.389Z,18.22
2023-03-11T19:55:17.626Z,18.19
2023-03-11T19:58:20.863Z,18.19
2023-03-11T20:01:25.268Z,18.19
2023-03-11T20:04:27.463Z,18.18
2023-03-11T20:07:29.842Z,18.15
2023-03-11T20:10:32.297Z,18.14
2023-03-11T20:13:44.221Z,18.12
2023-03-11T20:16:46.358Z,18.11
2023-03-11T20:19:48.496Z,18.12
2023-03-11T20:22:50.535Z,18.10
2023-03-11T20:25:52.701Z,18.08
2023-03-11T20:28:57.736Z,18.09
2023-03-11T20:31:59.864Z,18.08
2023-03-11T20:35:02.026Z,18.07
2023-03-11T20:38:04.425Z,18.07
2023-03-11T20:41:08.260Z,18.09
2023-03-11T20:44:13.511Z,18.06
2023-03-11T20:47:15.877Z,18.04
2023-03-11T20:50:18.301Z,18.02
2023-03-11T20:53:20.607Z,18.03
2023-03-11T20:56:25.652Z,17.98
2023-03-11T20:59:27.953Z,17.97
2023-03-11T21:02:33.439Z,17.97
2023-03-11T21:05:37.478Z,17.95
2023-03-11T21:08:39.931Z,17.96
2023-03-11T21:11:42.452Z,17.94
2023-03-11T21:14:44.848Z,17.94
2023-03-11T21:17:47.327Z,17.92
2023-03-11T21:20:49.637Z,17.92
2023-03-11T21:23:52.143Z,17.90
2023-03-11T21:26:54.456Z,17.91
2023-03-11T21:29:58.606Z,17.90
2023-03-11T21:33:01.138Z,17.90
2023-03-11T21:36:04.493Z,17.87
2023-03-11T21:39:06.789Z,17.85
2023-03-11T21:42:09.185Z,17.83
2023-03-11T21:45:12.234Z,17.84
2023-03-11T21:48:14.786Z,17.83
2023-03-11T21:51:18.203Z,17.81
2023-03-11T21:54:20.327Z,17.81
2023-03-11T21:57:23.595Z,17.79
2023-03-11T22:00:25.788Z,17.76
2023-03-11T22:03:28.355Z,17.76
2023-03-11T22:06:33.091Z,17.77
2023-03-11T22:09:35.227Z,17.73
2023-03-11T22:12:37.290Z,17.72
2023-03-11T22:15:39.619Z,17.73
2023-03-11T22:18:41.714Z,17.70
2023-03-11T22:21:44.202Z,17.68
2023-03-11T22:24:46.358Z,17.67
2023-03-11T22:27:48.456Z,17.65
2023-03-11T22:30:50.495Z,17.64
2023-03-11T22:33:52.563Z,17.63
2023-03-11T22:36:54.663Z,17.63
2023-03-11T22:39:56.779Z,17.61
2023-03-11T22:42:58.860Z,17.60
2023-03-11T22:46:02.398Z,17.58
2023-03-11T22:49:04.671Z,17.54
2023-03-11T22:52:06.673Z,17.55
2023-03-11T22:55:09.063Z,17.54
2023-03-11T22:58:12.047Z,17.54
2023-03-11T23:01:14.487Z,17.51
2023-03-11T23:04:16.499Z,17.50
2023-03-11T23:07:18.580Z,17.48
2023-03-11T23:10:21.620Z,17.48
2023-03-11T23:13:23.764Z,17.46
2023-03-11T23:16:26.270Z,17.46
2023-03-11T23:19:28.370Z,17.44
2023-03-11T23:22:30.466Z,17.41
2023-03-11T23:25:33.658Z,17.40
2023-03-11T23:28:36.075Z,17.38
2023-03-11T23:31:38.263Z,17.38
2023-03-11T23:34:40.322Z,17.38
2023-03-11T23:37:42.617Z,17.35
2023-03-11T23:40:44.671Z,17.34
2023-03-11T23:43:47.307Z,17.33
2023-03-11T23:46:49.415Z,17.33
2023-03-11T23:49:51.444Z,17.32
2023-03-11T23:52:53.479Z,17.30
2023-03-11T23:55:55.543Z,17.30
2023-03-11T23:58:57.625Z,17.28
